sensor_id;sensor_type;location;lat;lon;timestamp;P1;durP1;ratioP1;P2;durP2;ratioP2
16039;SDS011;8124;48.634;8.120;2023-02-28T00:00:37;34.23;;;30.63;;
16039;SDS011;8124;48.634;8.120;2023-02-28T00:05:40;34.40;;;31.00;;
16039;SDS011;8124;48.634;8.120;2023-02-28T00:10:45;33.63;;;30.30;;
16039;SDS011;8124;48.634;8.120;2023-02-28T00:15:47;33.77;;;30.37;;
16039;SDS011;8124;48.634;8.120;2023-02-28T00:21:01;34.10;;;30.70;;
16039;SDS011;8124;48.634;8.120;2023-02-28T00:26:05;33.67;;;30.27;;
16039;SDS011;8124;48.634;8.120;2023-02-28T00:31:08;33.40;;;30.10;;
16039;SDS011;8124;48.634;8.120;2023-02-28T00:36:12;33.23;;;29.93;;
16039;SDS011;8124;48.634;8.120;2023-02-28T00:41:16;34.10;;;30.63;;
16039;SDS011;8124;48.634;8.120;2023-02-28T00:46:21;33.83;;;30.30;;
16039;SDS011;8124;48.634;8.120;2023-02-28T00:51:24;33.67;;;30.27;;
16039;SDS011;8124;48.634;8.120;2023-02-28T00:56:29;33.63;;;30.33;;
16039;SDS011;8124;48.634;8.120;2023-02-28T01:01:32;33.83;;;30.43;;
16039;SDS011;8124;48.634;8.120;2023-02-28T01:06:35;33.83;;;30.23;;
16039;SDS011;8124;48.634;8.120;2023-02-28T01:11:39;32.80;;;29.60;;
16039;SDS011;8124;48.634;8.120;2023-02-28T01:16:45;33.27;;;30.00;;
16039;SDS011;8124;48.634;8.120;2023-02-28T01:21:48;36.23;;;29.80;;
16039;SDS011;8124;48.634;8.120;2023-02-28T01:26:52;33.27;;;29.97;;
16039;SDS011;8124;48.634;8.120;2023-02-28T01:31:55;38.93;;;34.73;;
16039;SDS011;8124;48.634;8.120;2023-02-28T01:37:00;34.50;;;30.80;;
16039;SDS011;8124;48.634;8.120;2023-02-28T01:42:07;34.50;;;31.00;;
16039;SDS011;8124;48.634;8.120;2023-02-28T01:47:11;34.73;;;31.07;;
16039;SDS011;8124;48.634;8.120;2023-02-28T01:52:14;33.20;;;30.00;;
16039;SDS011;8124;48.634;8.120;2023-02-28T01:57:22;33.73;;;30.30;;
16039;SDS011;8124;48.634;8.120;2023-02-28T02:02:29;33.90;;;30.40;;
16039;SDS011;8124;48.634;8.120;2023-02-28T02:07:34;35.03;;;31.33;;
16039;SDS011;8124;48.634;8.120;2023-02-28T02:18:13;34.20;;;30.80;;
16039;SDS011;8124;48.634;8.120;2023-02-28T02:23:47;33.63;;;30.20;;
16039;SDS011;8124;48.634;8.120;2023-02-28T02:29:12;34.13;;;30.73;;
16039;SDS011;8124;48.634;8.120;2023-02-28T02:40:08;33.60;;;30.17;;
16039;SDS011;8124;48.634;8.120;2023-02-28T02:45:17;34.00;;;30.60;;
16039;SDS011;8124;48.634;8.120;2023-02-28T02:50:25;34.13;;;30.77;;
16039;SDS011;8124;48.634;8.120;2023-02-28T02:55:33;32.83;;;29.53;;
16039;SDS011;8124;48.634;8.120;2023-02-28T03:00:41;34.43;;;30.90;;
16039;SDS011;8124;48.634;8.120;2023-02-28T03:05:49;33.90;;;30.47;;
16039;SDS011;8124;48.634;8.120;2023-02-28T03:10:55;34.17;;;30.67;;
16039;SDS011;8124;48.634;8.120;2023-02-28T03:16:05;33.73;;;30.40;;
16039;SDS011;8124;48.634;8.120;2023-02-28T03:21:33;33.40;;;30.00;;
16039;SDS011;8124;48.634;8.120;2023-02-28T03:26:41;34.33;;;30.77;;
16039;SDS011;8124;48.634;8.120;2023-02-28T03:31:48;35.60;;;31.80;;
16039;SDS011;8124;48.634;8.120;2023-02-28T03:36:57;33.47;;;30.17;;
16039;SDS011;8124;48.634;8.120;2023-02-28T03:42:05;34.37;;;30.87;;
16039;SDS011;8124;48.634;8.120;2023-02-28T03:47:12;33.47;;;30.17;;
16039;SDS011;8124;48.634;8.120;2023-02-28T03:52:21;40.77;;;30.60;;
16039;SDS011;8124;48.634;8.120;2023-02-28T03:57:30;33.97;;;30.60;;
16039;SDS011;8124;48.634;8.120;2023-02-28T04:02:39;33.77;;;30.37;;
16039;SDS011;8124;48.634;8.120;2023-02-28T04:07:43;34.27;;;30.90;;
16039;SDS011;8124;48.634;8.120;2023-02-28T04:12:46;34.20;;;30.90;;
16039;SDS011;8124;48.634;8.120;2023-02-28T04:17:49;34.30;;;30.90;;
16039;SDS011;8124;48.634;8.120;2023-02-28T04:22:53;33.83;;;30.53;;
16039;SDS011;8124;48.634;8.120;2023-02-28T04:27:56;34.77;;;31.07;;
16039;SDS011;8124;48.634;8.120;2023-02-28T04:33:00;32.53;;;29.33;;
16039;SDS011;8124;48.634;8.120;2023-02-28T04:38:04;34.43;;;30.93;;
16039;SDS011;8124;48.634;8.120;2023-02-28T04:43:09;33.23;;;29.87;;
16039;SDS011;8124;48.634;8.120;2023-02-28T04:48:12;34.03;;;30.67;;
16039;SDS011;8124;48.634;8.120;2023-02-28T04:53:16;34.30;;;31.00;;
16039;SDS011;8124;48.634;8.120;2023-02-28T04:58:20;33.73;;;30.37;;
16039;SDS011;8124;48.634;8.120;2023-02-28T05:03:24;34.23;;;30.73;;
16039;SDS011;8124;48.634;8.120;2023-02-28T05:08:29;34.17;;;30.77;;
16039;SDS011;8124;48.634;8.120;2023-02-28T05:13:33;34.00;;;30.70;;
16039;SDS011;8124;48.634;8.120;2023-02-28T05:18:37;33.63;;;30.13;;
16039;SDS011;8124;48.634;8.120;2023-02-28T05:23:41;34.37;;;30.87;;
16039;SDS011;8124;48.634;8.120;2023-02-28T05:28:44;34.97;;;31.40;;
16039;SDS011;8124;48.634;8.120;2023-02-28T05:33:47;34.80;;;31.33;;
16039;SDS011;8124;48.634;8.120;2023-02-28T05:38:51;38.80;;;34.90;;
16039;SDS011;8124;48.634;8.120;2023-02-28T05:43:54;38.00;;;34.10;;
16039;SDS011;8124;48.634;8.120;2023-02-28T05:48:57;34.80;;;31.20;;
16039;SDS011;8124;48.634;8.120;2023-02-28T05:54:03;36.90;;;33.07;;
16039;SDS011;8124;48.634;8.120;2023-02-28T05:59:07;36.07;;;32.27;;
16039;SDS011;8124;48.634;8.120;2023-02-28T06:04:10;34.70;;;31.00;;
16039;SDS011;8124;48.634;8.120;2023-02-28T06:09:33;34.90;;;31.30;;
16039;SDS011;8124;48.634;8.120;2023-02-28T06:14:36;36.60;;;32.93;;
16039;SDS011;8124;48.634;8.120;2023-02-28T06:19:39;36.77;;;33.00;;
16039;SDS011;8124;48.634;8.120;2023-02-28T06:24:44;35.37;;;31.80;;
16039;SDS011;8124;48.634;8.120;2023-02-28T06:29:47;36.13;;;32.37;;
16039;SDS011;8124;48.634;8.120;2023-02-28T06:34:51;35.93;;;32.23;;
16039;SDS011;8124;48.634;8.120;2023-02-28T06:39:56;36.87;;;33.03;;
16039;SDS011;8124;48.634;8.120;2023-02-28T06:44:59;36.77;;;32.93;;
16039;SDS011;8124;48.634;8.120;2023-02-28T06:50:04;35.13;;;31.53;;
16039;SDS011;8124;48.634;8.120;2023-02-28T06:55:11;39.50;;;35.20;;
16039;SDS011;8124;48.634;8.120;2023-02-28T07:00:15;38.27;;;34.27;;
16039;SDS011;8124;48.634;8.120;2023-02-28T07:05:19;35.57;;;32.00;;
16039;SDS011;8124;48.634;8.120;2023-02-28T07:10:23;37.57;;;33.67;;
16039;SDS011;8124;48.634;8.120;2023-02-28T07:15:26;37.83;;;33.93;;
16039;SDS011;8124;48.634;8.120;2023-02-28T07:20:29;37.07;;;33.27;;
16039;SDS011;8124;48.634;8.120;2023-02-28T07:25:34;37.23;;;33.17;;
16039;SDS011;8124;48.634;8.120;2023-02-28T07:30:37;36.40;;;32.63;;
16039;SDS011;8124;48.634;8.120;2023-02-28T07:35:40;36.77;;;32.87;;
16039;SDS011;8124;48.634;8.120;2023-02-28T07:40:45;36.83;;;33.07;;
16039;SDS011;8124;48.634;8.120;2023-02-28T07:45:48;37.97;;;32.17;;
16039;SDS011;8124;48.634;8.120;2023-02-28T07:50:53;37.03;;;32.90;;
16039;SDS011;8124;48.634;8.120;2023-02-28T07:55:59;36.63;;;32.83;;
16039;SDS011;8124;48.634;8.120;2023-02-28T08:01:06;34.53;;;31.13;;
16039;SDS011;8124;48.634;8.120;2023-02-28T08:06:15;37.17;;;33.47;;
16039;SDS011;8124;48.634;8.120;2023-02-28T08:11:20;36.10;;;32.20;;
16039;SDS011;8124;48.634;8.120;2023-02-28T08:16:23;36.70;;;32.73;;
16039;SDS011;8124;48.634;8.120;2023-02-28T08:21:26;35.27;;;31.63;;
16039;SDS011;8124;48.634;8.120;2023-02-28T08:26:31;34.43;;;30.73;;
16039;SDS011;8124;48.634;8.120;2023-02-28T08:31:34;34.87;;;31.23;;
16039;SDS011;8124;48.634;8.120;2023-02-28T08:36:37;35.40;;;31.70;;
16039;SDS011;8124;48.634;8.120;2023-02-28T08:41:43;35.63;;;32.03;;
16039;SDS011;8124;48.634;8.120;2023-02-28T08:46:49;34.87;;;31.27;;
16039;SDS011;8124;48.634;8.120;2023-02-28T08:51:52;36.77;;;32.47;;
16039;SDS011;8124;48.634;8.120;2023-02-28T08:57:04;36.73;;;32.77;;
16039;SDS011;8124;48.634;8.120;2023-02-28T09:02:08;36.60;;;32.60;;
16039;SDS011;8124;48.634;8.120;2023-02-28T09:07:11;35.13;;;31.43;;
16039;SDS011;8124;48.634;8.120;2023-02-28T09:12:16;35.93;;;32.13;;
16039;SDS011;8124;48.634;8.120;2023-02-28T09:17:19;35.23;;;31.63;;
16039;SDS011;8124;48.634;8.120;2023-02-28T09:22:22;37.27;;;33.23;;
16039;SDS011;8124;48.634;8.120;2023-02-28T09:27:28;36.93;;;33.13;;
16039;SDS011;8124;48.634;8.120;2023-02-28T09:32:31;34.40;;;30.90;;
16039;SDS011;8124;48.634;8.120;2023-02-28T09:37:34;37.53;;;33.50;;
16039;SDS011;8124;48.634;8.120;2023-02-28T09:42:38;36.37;;;32.57;;
16039;SDS011;8124;48.634;8.120;2023-02-28T09:47:42;37.23;;;33.43;;
16039;SDS011;8124;48.634;8.120;2023-02-28T09:52:47;37.07;;;33.13;;
16039;SDS011;8124;48.634;8.120;2023-02-28T09:57:53;37.37;;;33.40;;
16039;SDS011;8124;48.634;8.120;2023-02-28T10:03:08;37.30;;;33.07;;
16039;SDS011;8124;48.634;8.120;2023-02-28T10:08:26;37.00;;;33.17;;
16039;SDS011;8124;48.634;8.120;2023-02-28T10:13:35;37.80;;;33.90;;
16039;SDS011;8124;48.634;8.120;2023-02-28T10:18:43;37.60;;;33.73;;
16039;SDS011;8124;48.634;8.120;2023-02-28T10:23:49;37.53;;;33.60;;
16039;SDS011;8124;48.634;8.120;2023-02-28T10:29:02;37.53;;;33.60;;
16039;SDS011;8124;48.634;8.120;2023-02-28T10:34:05;38.53;;;34.33;;
16039;SDS011;8124;48.634;8.120;2023-02-28T10:44:43;38.43;;;34.33;;
16039;SDS011;8124;48.634;8.120;2023-02-28T10:49:47;37.37;;;33.47;;
16039;SDS011;8124;48.634;8.120;2023-02-28T10:54:51;39.00;;;34.90;;
16039;SDS011;8124;48.634;8.120;2023-02-28T11:00:21;38.53;;;34.40;;
16039;SDS011;8124;48.634;8.120;2023-02-28T11:05:28;38.47;;;34.37;;
16039;SDS011;8124;48.634;8.120;2023-02-28T11:10:33;40.67;;;36.37;;
16039;SDS011;8124;48.634;8.120;2023-02-28T11:15:39;38.77;;;34.57;;
16039;SDS011;8124;48.634;8.120;2023-02-28T11:20:42;39.10;;;34.53;;
16039;SDS011;8124;48.634;8.120;2023-02-28T11:25:51;38.77;;;34.30;;
16039;SDS011;8124;48.634;8.120;2023-02-28T11:31:04;40.20;;;35.10;;
16039;SDS011;8124;48.634;8.120;2023-02-28T11:36:18;40.07;;;35.60;;
16039;SDS011;8124;48.634;8.120;2023-02-28T11:41:31;44.03;;;34.03;;
16039;SDS011;8124;48.634;8.120;2023-02-28T11:46:49;43.57;;;35.53;;
16039;SDS011;8124;48.634;8.120;2023-02-28T11:51:56;42.57;;;35.27;;
16039;SDS011;8124;48.634;8.120;2023-02-28T11:57:08;39.43;;;35.03;;
16039;SDS011;8124;48.634;8.120;2023-02-28T12:02:26;40.00;;;34.70;;
16039;SDS011;8124;48.634;8.120;2023-02-28T12:07:36;38.13;;;34.03;;
16039;SDS011;8124;48.634;8.120;2023-02-28T12:12:46;38.70;;;34.53;;
16039;SDS011;8124;48.634;8.120;2023-02-28T12:17:58;41.23;;;36.23;;
16039;SDS011;8124;48.634;8.120;2023-02-28T12:23:15;39.43;;;35.13;;
16039;SDS011;8124;48.634;8.120;2023-02-28T12:28:30;39.07;;;34.83;;
16039;SDS011;8124;48.634;8.120;2023-02-28T12:33:40;39.63;;;35.33;;
16039;SDS011;8124;48.634;8.120;2023-02-28T12:38:48;38.97;;;34.77;;
16039;SDS011;8124;48.634;8.120;2023-02-28T12:44:00;39.40;;;35.17;;
16039;SDS011;8124;48.634;8.120;2023-02-28T12:49:08;41.43;;;35.80;;
16039;SDS011;8124;48.634;8.120;2023-02-28T12:54:16;38.83;;;34.67;;
16039;SDS011;8124;48.634;8.120;2023-02-28T12:59:27;38.13;;;33.93;;
16039;SDS011;8124;48.634;8.120;2023-02-28T13:10:04;39.27;;;35.07;;
16039;SDS011;8124;48.634;8.120;2023-02-28T13:15:15;40.23;;;35.30;;
16039;SDS011;8124;48.634;8.120;2023-02-28T13:20:25;39.20;;;35.00;;
16039;SDS011;8124;48.634;8.120;2023-02-28T13:31:00;39.93;;;35.63;;
16039;SDS011;8124;48.634;8.120;2023-02-28T13:36:09;41.97;;;35.40;;
16039;SDS011;8124;48.634;8.120;2023-02-28T13:41:40;39.80;;;35.50;;
16039;SDS011;8124;48.634;8.120;2023-02-28T13:52:26;40.77;;;36.27;;
16039;SDS011;8124;48.634;8.120;2023-02-28T13:57:32;40.73;;;34.87;;
16039;SDS011;8124;48.634;8.120;2023-02-28T14:03:01;42.00;;;36.20;;
16039;SDS011;8124;48.634;8.120;2023-02-28T14:08:15;40.83;;;36.23;;
16039;SDS011;8124;48.634;8.120;2023-02-28T14:13:38;40.27;;;36.03;;
16039;SDS011;8124;48.634;8.120;2023-02-28T14:18:48;39.37;;;35.00;;
16039;SDS011;8124;48.634;8.120;2023-02-28T14:35:22;39.80;;;35.40;;
16039;SDS011;8124;48.634;8.120;2023-02-28T14:40:39;41.58;;;35.78;;
16039;SDS011;8124;48.634;8.120;2023-02-28T14:45:43;40.83;;;36.30;;
16039;SDS011;8124;48.634;8.120;2023-02-28T14:50:49;39.33;;;35.03;;
16039;SDS011;8124;48.634;8.120;2023-02-28T14:55:54;42.53;;;37.63;;
16039;SDS011;8124;48.634;8.120;2023-02-28T15:00:58;40.85;;;35.58;;
16039;SDS011;8124;48.634;8.120;2023-02-28T15:06:06;41.58;;;35.80;;
16039;SDS011;8124;48.634;8.120;2023-02-28T15:11:18;40.50;;;36.05;;
16039;SDS011;8124;48.634;8.120;2023-02-28T15:16:24;41.40;;;36.88;;
16039;SDS011;8124;48.634;8.120;2023-02-28T15:21:34;40.87;;;35.90;;
16039;SDS011;8124;48.634;8.120;2023-02-28T15:26:39;41.00;;;36.47;;
16039;SDS011;8124;48.634;8.120;2023-02-28T15:31:46;43.00;;;37.88;;
16039;SDS011;8124;48.634;8.120;2023-02-28T15:37:02;41.15;;;36.63;;
16039;SDS011;8124;48.634;8.120;2023-02-28T15:42:09;42.33;;;37.23;;
16039;SDS011;8124;48.634;8.120;2023-02-28T15:47:14;44.85;;;40.15;;
16039;SDS011;8124;48.634;8.120;2023-02-28T15:52:24;42.30;;;36.92;;
16039;SDS011;8124;48.634;8.120;2023-02-28T15:57:33;45.97;;;38.83;;
16039;SDS011;8124;48.634;8.120;2023-02-28T16:02:36;41.10;;;36.63;;
16039;SDS011;8124;48.634;8.120;2023-02-28T16:07:44;42.65;;;37.10;;
16039;SDS011;8124;48.634;8.120;2023-02-28T16:12:48;43.38;;;36.92;;
16039;SDS011;8124;48.634;8.120;2023-02-28T16:17:51;43.42;;;37.42;;
16039;SDS011;8124;48.634;8.120;2023-02-28T16:22:57;41.78;;;37.22;;
16039;SDS011;8124;48.634;8.120;2023-02-28T16:28:03;44.13;;;36.58;;
16039;SDS011;8124;48.634;8.120;2023-02-28T16:33:11;41.65;;;36.60;;
16039;SDS011;8124;48.634;8.120;2023-02-28T16:38:16;41.42;;;36.42;;
16039;SDS011;8124;48.634;8.120;2023-02-28T16:43:22;42.55;;;37.63;;
16039;SDS011;8124;48.634;8.120;2023-02-28T16:48:28;42.95;;;37.53;;
16039;SDS011;8124;48.634;8.120;2023-02-28T16:53:37;41.97;;;36.63;;
16039;SDS011;8124;48.634;8.120;2023-02-28T16:58:40;41.42;;;36.25;;
16039;SDS011;8124;48.634;8.120;2023-02-28T17:03:43;41.15;;;36.65;;
16039;SDS011;8124;48.634;8.120;2023-02-28T17:08:47;42.90;;;36.45;;
16039;SDS011;8124;48.634;8.120;2023-02-28T17:13:51;43.40;;;37.30;;
16039;SDS011;8124;48.634;8.120;2023-02-28T17:18:56;43.83;;;37.30;;
16039;SDS011;8124;48.634;8.120;2023-02-28T17:24:02;44.40;;;38.13;;
16039;SDS011;8124;48.634;8.120;2023-02-28T17:29:06;42.57;;;37.87;;
16039;SDS011;8124;48.634;8.120;2023-02-28T17:34:15;44.47;;;37.10;;
16039;SDS011;8124;48.634;8.120;2023-02-28T17:39:20;43.50;;;37.78;;
16039;SDS011;8124;48.634;8.120;2023-02-28T17:44:27;43.90;;;37.97;;
16039;SDS011;8124;48.634;8.120;2023-02-28T17:49:30;44.67;;;38.67;;
16039;SDS011;8124;48.634;8.120;2023-02-28T17:54:35;45.17;;;38.57;;
16039;SDS011;8124;48.634;8.120;2023-02-28T17:59:38;43.43;;;37.73;;
16039;SDS011;8124;48.634;8.120;2023-02-28T18:04:43;47.03;;;38.63;;
16039;SDS011;8124;48.634;8.120;2023-02-28T18:09:47;45.57;;;38.27;;
16039;SDS011;8124;48.634;8.120;2023-02-28T18:14:50;45.07;;;38.53;;
16039;SDS011;8124;48.634;8.120;2023-02-28T18:19:53;45.07;;;38.37;;
16039;SDS011;8124;48.634;8.120;2023-02-28T18:24:58;50.03;;;39.03;;
16039;SDS011;8124;48.634;8.120;2023-02-28T18:30:01;48.47;;;39.80;;
16039;SDS011;8124;48.634;8.120;2023-02-28T18:35:05;46.77;;;39.03;;
16039;SDS011;8124;48.634;8.120;2023-02-28T18:40:12;46.57;;;38.90;;
16039;SDS011;8124;48.634;8.120;2023-02-28T18:45:16;45.93;;;39.27;;
16039;SDS011;8124;48.634;8.120;2023-02-28T18:50:19;44.43;;;38.70;;
16039;SDS011;8124;48.634;8.120;2023-02-28T18:55:23;45.17;;;38.63;;
16039;SDS011;8124;48.634;8.120;2023-02-28T19:00:28;46.47;;;39.20;;
16039;SDS011;8124;48.634;8.120;2023-02-28T19:05:38;42.97;;;37.93;;
16039;SDS011;8124;48.634;8.120;2023-02-28T19:10:49;45.43;;;38.90;;
16039;SDS011;8124;48.634;8.120;2023-02-28T19:15:59;47.60;;;40.20;;
16039;SDS011;8124;48.634;8.120;2023-02-28T19:21:04;45.47;;;38.33;;
16039;SDS011;8124;48.634;8.120;2023-02-28T19:26:10;46.87;;;38.70;;
16039;SDS011;8124;48.634;8.120;2023-02-28T19:31:15;44.80;;;38.63;;
16039;SDS011;8124;48.634;8.120;2023-02-28T19:36:20;45.40;;;38.63;;
16039;SDS011;8124;48.634;8.120;2023-02-28T19:41:25;46.83;;;38.33;;
16039;SDS011;8124;48.634;8.120;2023-02-28T19:46:28;46.33;;;39.30;;
16039;SDS011;8124;48.634;8.120;2023-02-28T19:51:31;45.70;;;38.67;;
16039;SDS011;8124;48.634;8.120;2023-02-28T19:56:42;43.50;;;38.37;;
16039;SDS011;8124;48.634;8.120;2023-02-28T20:01:45;43.63;;;36.33;;
16039;SDS011;8124;48.634;8.120;2023-02-28T20:06:49;44.70;;;37.30;;
16039;SDS011;8124;48.634;8.120;2023-02-28T20:11:53;50.30;;;38.90;;
16039;SDS011;8124;48.634;8.120;2023-02-28T20:16:59;46.07;;;39.00;;
16039;SDS011;8124;48.634;8.120;2023-02-28T20:22:02;45.80;;;38.87;;
16039;SDS011;8124;48.634;8.120;2023-02-28T20:27:06;46.50;;;39.13;;
16039;SDS011;8124;48.634;8.120;2023-02-28T20:32:09;43.93;;;38.37;;
16039;SDS011;8124;48.634;8.120;2023-02-28T20:37:13;43.43;;;37.23;;
16039;SDS011;8124;48.634;8.120;2023-02-28T20:42:17;45.07;;;38.80;;
16039;SDS011;8124;48.634;8.120;2023-02-28T20:47:20;46.63;;;39.57;;
16039;SDS011;8124;48.634;8.120;2023-02-28T20:52:23;45.87;;;38.93;;
16039;SDS011;8124;48.634;8.120;2023-02-28T20:57:28;45.57;;;38.50;;
16039;SDS011;8124;48.634;8.120;2023-02-28T21:02:31;42.70;;;37.83;;
16039;SDS011;8124;48.634;8.120;2023-02-28T21:07:35;47.00;;;39.03;;
16039;SDS011;8124;48.634;8.120;2023-02-28T21:12:40;42.30;;;36.20;;
16039;SDS011;8124;48.634;8.120;2023-02-28T21:17:43;55.03;;;37.23;;
16039;SDS011;8124;48.634;8.120;2023-02-28T21:22:48;44.67;;;37.77;;
16039;SDS011;8124;48.634;8.120;2023-02-28T21:27:52;49.03;;;38.73;;
16039;SDS011;8124;48.634;8.120;2023-02-28T21:32:55;43.63;;;37.87;;
16039;SDS011;8124;48.634;8.120;2023-02-28T21:37:58;40.53;;;35.77;;
16039;SDS011;8124;48.634;8.120;2023-02-28T21:43:03;42.30;;;37.37;;
16039;SDS011;8124;48.634;8.120;2023-02-28T21:48:05;47.77;;;38.50;;
16039;SDS011;8124;48.634;8.120;2023-02-28T21:53:10;41.37;;;36.83;;
16039;SDS011;8124;48.634;8.120;2023-02-28T21:58:14;44.63;;;37.13;;
16039;SDS011;8124;48.634;8.120;2023-02-28T22:03:17;43.40;;;37.60;;
16039;SDS011;8124;48.634;8.120;2023-02-28T22:08:20;42.30;;;37.70;;
16039;SDS011;8124;48.634;8.120;2023-02-28T22:13:25;46.30;;;38.50;;
16039;SDS011;8124;48.634;8.120;2023-02-28T22:18:27;44.73;;;36.37;;
16039;SDS011;8124;48.634;8.120;2023-02-28T22:23:31;41.40;;;36.90;;
16039;SDS011;8124;48.634;8.120;2023-02-28T22:28:35;43.00;;;36.27;;
16039;SDS011;8124;48.634;8.120;2023-02-28T22:33:38;41.57;;;36.40;;
16039;SDS011;8124;48.634;8.120;2023-02-28T22:38:41;46.53;;;37.70;;
16039;SDS011;8124;48.634;8.120;2023-02-28T22:43:48;42.23;;;36.03;;
16039;SDS011;8124;48.634;8.120;2023-02-28T22:48:53;41.53;;;36.63;;
16039;SDS011;8124;48.634;8.120;2023-02-28T22:53:56;41.13;;;36.73;;
16039;SDS011;8124;48.634;8.120;2023-02-28T22:59:01;42.20;;;37.57;;
16039;SDS011;8124;48.634;8.120;2023-02-28T23:04:04;42.80;;;36.40;;
16039;SDS011;8124;48.634;8.120;2023-02-28T23:09:08;45.97;;;36.10;;
16039;SDS011;8124;48.634;8.120;2023-02-28T23:14:16;40.73;;;35.50;;
16039;SDS011;8124;48.634;8.120;2023-02-28T23:19:20;40.23;;;35.30;;
16039;SDS011;8124;48.634;8.120;2023-02-28T23:24:28;42.07;;;35.77;;
16039;SDS011;8124;48.634;8.120;2023-02-28T23:29:34;41.93;;;36.27;;
16039;SDS011;8124;48.634;8.120;2023-02-28T23:34:37;40.17;;;35.40;;
16039;SDS011;8124;48.634;8.120;2023-02-28T23:39:40;40.00;;;35.60;;
16039;SDS011;8124;48.634;8.120;2023-02-28T23:44:44;41.57;;;35.90;;
16039;SDS011;8124;48.634;8.120;2023-02-28T23:49:47;39.97;;;35.43;;
16039;SDS011;8124;48.634;8.120;2023-02-28T23:54:50;42.53;;;35.37;;
16039;SDS011;8124;48.634;8.120;2023-02-28T23:59:54;39.67;;;35.43;;
